Terminal Aerodrome Forecast
Issued by NWS

Home | Current Version | Previous Version | Graphics & Text | Print | Product List | Glossary On
Versions: 1 2 3 4 5 6 7 8 9 10 11 12 13 14 15 16 17 18 19 20
000
FTUS43 KABR 221300 AAA
TAFATY
TAF AMD
KATY 221346Z 2214/2312 36016KT P6SM BKN015
     FM221800 36013KT P6SM SCT040 SCT150
     FM230400 05006KT P6SM SKC=

USA.gov is the U.S. government's official web portal to all federal, state and local government web resources and services.